Flight Track Log - Related Links

Times and Time Zones

All times are in EDT time to prevent confusion due to time zone crossing. See the UAL5900 flight status page for this flight to view local times or setup timezone preferences in your user account.

Time Position Orientation Groundspeed Altitude Reporting Facility
EDT Latitude Longitude Course Direction KTS MPH feet Rate Location/Type
09:49PM 41.9500 -87.9000 270° West 155 178 1,700  Level Chicago TRACON
09:50PM 41.9167 -87.9500 228° Southwest 193 222 3,800 1,826 Climbing Chicago TRACON
09:51PM 41.8667 -88.0000 217° Southwest 234 269 5,200 1,573 Climbing Chicago TRACON
09:52PM 41.9667 -88.3227 270° West  Level FlightAware Approximate
09:52PM 41.8519 -88.0667 254° West 251 289 6,500  Level Chicago Center
09:53PM 41.9667 -88.4636 270° West  Level FlightAware Approximate
09:53PM 41.8631 -88.1653 279° West 283 326 8,600  Level Chicago Center
09:54PM 41.9668 -88.6045 270° West  Level FlightAware Approximate
09:54PM 41.8967 -88.2864 290° West 291 335 10,600  Level Chicago Center
09:55PM 41.9667 -88.7454 270° West  Level FlightAware Approximate
09:55PM 41.9278 -88.3994 290° West 320 368 11,300  Level Chicago Center
09:56PM 41.9617 -88.5186 291° West 340 391 12,800 1,258 Climbing Chicago Center
09:57PM 41.9969 -88.6417 291° West 353 406 13,900 1,073 Climbing Chicago Center
09:58PM 42.0331 -88.7672 291° West 362 417 15,000 1,171 Climbing Chicago Center
09:59PM 42.0675 -88.9231 287° West 374 430 16,300 1,016 Climbing Chicago Center
10:00PM 42.0700 -89.0483 272° West 369 425 17,100 774 Climbing Chicago Center
10:01PM 42.0725 -89.1922 271° West 380 437 17,900 683 Climbing Chicago Center
10:02PM 42.0758 -89.3611 272° West 386 444 18,500 683 Climbing Chicago Center
10:03PM 42.0803 -89.5075 272° West 391 450 19,300 774 Climbing Chicago Center
10:04PM 42.0836 -89.6550 272° West 394 453 20,100 732 Climbing Chicago Center
10:05PM 42.0875 -89.8033 272° West 396 456 20,800 683 Climbing Chicago Center
10:06PM 42.0903 -89.9389 272° West 399 459 21,500 927 Climbing Chicago Center
10:07PM 42.0950 -90.1189 272° West 403 464 22,700 1,415 Climbing Chicago Center
10:08PM 42.0989 -90.2642 272° West 393 452 24,400 1,512 Climbing Chicago Center
10:09PM 42.1042 -90.3994 273° West 371 427 25,800 1,073 Climbing Chicago Center
10:10PM 42.1378 -90.5328 289° West 389 448 26,600 878 Climbing Chicago Center
10:11PM 42.1847 -90.6628 296° West 388 447 27,600 976 Climbing Chicago Center
10:12PM 42.2300 -90.7919 295° West 386 444 28,600 1,024 Climbing Chicago Center
10:13PM 42.2769 -90.9244 296° West 394 453 29,700 683 Climbing Chicago Center
10:14PM 42.3342 -91.0867 296° West 401 461 30,000 146 Climbing Chicago Center
10:15PM 42.3864 -91.2322 296° West 426 490 30,000  Level Chicago Center
10:17PM 42.4392 -91.3861 295° West 447 514 30,000 683 Level Chicago Center
10:18PM 42.4911 -91.5381 295° West 446 513 31,400 984 Climbing Chicago Center
10:19PM 42.5419 -91.6853 295° West 432 497 32,000 293 Climbing Chicago Center
10:20PM 42.5947 -91.8386 295° West 440 506 32,000  Level Chicago Center
10:21PM 42.6492 -91.9950 295° West 453 521 32,000  Level Chicago Center
10:22PM 42.7025 -92.1519 295° West 458 527 32,000  Level Chicago Center
10:23PM 42.7544 -92.3036 295° West 449 517 32,000  Level Chicago Center
10:24PM 42.8167 -92.4897 295° West 452 520 32,000  Level Chicago Center
10:25PM 42.8661 -92.6458 293° West 454 522 32,000  Level Chicago Center
10:25PM 42.8922 -92.7808 285° West 458 527 32,000  Level Minneapolis Center
10:26PM 42.9244 -92.9442 285° West 451 519 32,000  Level Minneapolis Center
10:28PM 42.9556 -93.1108 284° West 456 525 32,000  Level Minneapolis Center
10:29PM 42.9872 -93.2764 285° West 456 525 32,000  Level Minneapolis Center
10:30PM 43.0181 -93.4442 284° West 456 525 32,000  Level Minneapolis Center
10:31PM 43.0553 -93.6428 284° West 454 522 32,000  Level Minneapolis Center
10:32PM 43.0886 -93.8083 285° West 455 524 32,000  Level Minneapolis Center
10:33PM 43.1208 -93.9736 285° West 454 522 32,000  Level Minneapolis Center
10:34PM 43.1542 -94.1411 285° West 457 526 32,000  Level Minneapolis Center
10:35PM 43.1925 -94.3325 285° West 453 521 32,000  Level Minneapolis Center
10:36PM 43.2264 -94.4992 286° West 454 522 32,000  Level Minneapolis Center
10:37PM 43.2622 -94.6661 286° West 456 525 32,000  Level Minneapolis Center
10:38PM 43.2958 -94.8322 286° West 455 524 32,000 -532 Level Minneapolis Center
10:39PM 43.3225 -94.9992 282° West 447 514 30,900 -1,742 Descending Minneapolis Center
10:40PM 43.3483 -95.1642 282° West 443 510 28,400 -2,585 Descending Minneapolis Center
10:41PM 43.3744 -95.3331 282° West 449 517 25,600 -2,634 Descending Minneapolis Center
10:42PM 43.4000 -95.5006 282° West 449 517 23,000 -2,780 Descending Minneapolis Center
10:43PM 43.4297 -95.6942 282° West 433 498 19,900 -2,683 Descending Minneapolis Center
10:44PM 43.4528 -95.8483 282° West 417 480 17,500 -2,390 Descending Minneapolis Center
10:45PM 43.4747 -95.9958 282° West 399 459 15,000 -2,488 Descending Minneapolis Center
10:46PM 43.4942 -96.1314 281° West 370 426 12,400 -2,146 Descending Minneapolis Center
10:47PM 43.5131 -96.2586 282° West 351 404 10,600 -1,463 Descending Minneapolis Center
10:48PM 43.5378 -96.3661 288° West 325 374 9,400 -1,180 Descending Minneapolis Center
10:49PM 43.5725 -96.4681 295° West 306 352 8,200 -1,180 Descending Minneapolis Center

Login

Don't have an account? Register now (free) for customized features, flight alerts, and more!